sensor_id;sensor_type;location;lat;lon;timestamp;P1;durP1;ratioP1;P2;durP2;ratioP2
64894;SDS011;51588;53.702;10.208;2022-07-21T00:00:50;19.50;;;15.00;;
64894;SDS011;51588;53.702;10.208;2022-07-21T00:03:16;19.70;;;15.17;;
64894;SDS011;51588;53.702;10.208;2022-07-21T00:05:42;18.63;;;14.70;;
64894;SDS011;51588;53.702;10.208;2022-07-21T00:08:09;16.73;;;14.93;;
64894;SDS011;51588;53.702;10.208;2022-07-21T00:10:35;20.17;;;15.50;;
64894;SDS011;51588;53.702;10.208;2022-07-21T00:13:02;17.70;;;15.37;;
64894;SDS011;51588;53.702;10.208;2022-07-21T00:15:28;18.50;;;16.10;;
64894;SDS011;51588;53.702;10.208;2022-07-21T00:17:56;18.10;;;15.37;;
64894;SDS011;51588;53.702;10.208;2022-07-21T00:20:23;17.43;;;14.43;;
64894;SDS011;51588;53.702;10.208;2022-07-21T00:22:49;17.67;;;15.43;;
64894;SDS011;51588;53.702;10.208;2022-07-21T00:25:16;19.43;;;14.83;;
64894;SDS011;51588;53.702;10.208;2022-07-21T00:27:42;16.50;;;14.27;;
64894;SDS011;51588;53.702;10.208;2022-07-21T00:30:10;18.70;;;15.27;;
64894;SDS011;51588;53.702;10.208;2022-07-21T00:32:36;16.70;;;14.53;;
64894;SDS011;51588;53.702;10.208;2022-07-21T00:35:05;16.77;;;14.10;;
64894;SDS011;51588;53.702;10.208;2022-07-21T00:37:32;15.87;;;14.17;;
64894;SDS011;51588;53.702;10.208;2022-07-21T00:39:58;17.27;;;14.03;;
64894;SDS011;51588;53.702;10.208;2022-07-21T00:42:25;16.20;;;13.87;;
64894;SDS011;51588;53.702;10.208;2022-07-21T00:44:53;16.87;;;13.93;;
64894;SDS011;51588;53.702;10.208;2022-07-21T00:47:19;16.87;;;14.07;;
64894;SDS011;51588;53.702;10.208;2022-07-21T00:49:46;17.70;;;13.90;;
64894;SDS011;51588;53.702;10.208;2022-07-21T00:52:14;18.77;;;14.10;;
64894;SDS011;51588;53.702;10.208;2022-07-21T00:54:40;18.03;;;15.10;;
64894;SDS011;51588;53.702;10.208;2022-07-21T00:57:07;16.03;;;14.03;;
64894;SDS011;51588;53.702;10.208;2022-07-21T00:59:34;16.80;;;14.00;;
64894;SDS011;51588;53.702;10.208;2022-07-21T01:02:00;19.03;;;15.83;;
64894;SDS011;51588;53.702;10.208;2022-07-21T01:04:27;14.53;;;13.03;;
64894;SDS011;51588;53.702;10.208;2022-07-21T01:06:53;17.27;;;13.90;;
64894;SDS011;51588;53.702;10.208;2022-07-21T01:09:21;18.50;;;14.73;;
64894;SDS011;51588;53.702;10.208;2022-07-21T01:11:48;17.07;;;14.30;;
64894;SDS011;51588;53.702;10.208;2022-07-21T01:14:14;17.50;;;14.20;;
64894;SDS011;51588;53.702;10.208;2022-07-21T01:16:41;17.10;;;14.47;;
64894;SDS011;51588;53.702;10.208;2022-07-21T01:19:08;16.47;;;14.63;;
64894;SDS011;51588;53.702;10.208;2022-07-21T01:21:36;15.97;;;14.03;;
64894;SDS011;51588;53.702;10.208;2022-07-21T01:24:03;16.03;;;14.33;;
64894;SDS011;51588;53.702;10.208;2022-07-21T01:26:30;14.90;;;13.10;;
64894;SDS011;51588;53.702;10.208;2022-07-21T01:28:57;19.07;;;14.87;;
64894;SDS011;51588;53.702;10.208;2022-07-21T01:31:23;15.50;;;13.53;;
64894;SDS011;51588;53.702;10.208;2022-07-21T01:33:50;17.07;;;14.17;;
64894;SDS011;51588;53.702;10.208;2022-07-21T01:36:16;16.43;;;12.77;;
64894;SDS011;51588;53.702;10.208;2022-07-21T01:38:44;14.83;;;13.00;;
64894;SDS011;51588;53.702;10.208;2022-07-21T01:41:28;14.87;;;13.27;;
64894;SDS011;51588;53.702;10.208;2022-07-21T01:43:59;19.30;;;14.70;;
64894;SDS011;51588;53.702;10.208;2022-07-21T01:46:26;17.17;;;14.20;;
64894;SDS011;51588;53.702;10.208;2022-07-21T01:48:53;15.30;;;13.03;;
64894;SDS011;51588;53.702;10.208;2022-07-21T01:51:19;16.13;;;13.67;;
64894;SDS011;51588;53.702;10.208;2022-07-21T01:53:47;15.67;;;14.00;;
64894;SDS011;51588;53.702;10.208;2022-07-21T01:56:13;16.20;;;12.90;;
64894;SDS011;51588;53.702;10.208;2022-07-21T01:58:40;14.50;;;13.00;;
64894;SDS011;51588;53.702;10.208;2022-07-21T02:01:06;16.40;;;13.87;;
64894;SDS011;51588;53.702;10.208;2022-07-21T02:03:32;16.93;;;13.80;;
64894;SDS011;51588;53.702;10.208;2022-07-21T02:06:00;15.17;;;13.07;;
64894;SDS011;51588;53.702;10.208;2022-07-21T02:08:26;16.67;;;13.70;;
64894;SDS011;51588;53.702;10.208;2022-07-21T02:10:54;15.50;;;11.80;;
64894;SDS011;51588;53.702;10.208;2022-07-21T02:13:20;17.40;;;13.73;;
64894;SDS011;51588;53.702;10.208;2022-07-21T02:15:47;15.17;;;12.00;;
64894;SDS011;51588;53.702;10.208;2022-07-21T02:18:13;15.87;;;13.13;;
64894;SDS011;51588;53.702;10.208;2022-07-21T02:20:39;20.53;;;13.37;;
64894;SDS011;51588;53.702;10.208;2022-07-21T02:23:06;15.87;;;12.70;;
64894;SDS011;51588;53.702;10.208;2022-07-21T02:25:32;14.90;;;12.07;;
64894;SDS011;51588;53.702;10.208;2022-07-21T02:28:00;16.57;;;13.33;;
64894;SDS011;51588;53.702;10.208;2022-07-21T02:30:26;14.90;;;12.10;;
64894;SDS011;51588;53.702;10.208;2022-07-21T02:32:53;15.17;;;12.90;;
64894;SDS011;51588;53.702;10.208;2022-07-21T02:35:19;14.20;;;12.10;;
64894;SDS011;51588;53.702;10.208;2022-07-21T02:37:45;17.00;;;12.87;;
64894;SDS011;51588;53.702;10.208;2022-07-21T02:40:12;14.20;;;12.17;;
64894;SDS011;51588;53.702;10.208;2022-07-21T02:42:38;15.40;;;13.10;;
64894;SDS011;51588;53.702;10.208;2022-07-21T02:45:07;13.63;;;11.30;;
64894;SDS011;51588;53.702;10.208;2022-07-21T02:47:46;17.97;;;13.13;;
64894;SDS011;51588;53.702;10.208;2022-07-21T02:50:13;15.77;;;12.57;;
64894;SDS011;51588;53.702;10.208;2022-07-21T02:52:39;14.33;;;12.63;;
64894;SDS011;51588;53.702;10.208;2022-07-21T02:55:06;15.30;;;12.73;;
64894;SDS011;51588;53.702;10.208;2022-07-21T02:57:32;14.00;;;12.50;;
64894;SDS011;51588;53.702;10.208;2022-07-21T02:59:59;16.60;;;13.10;;
64894;SDS011;51588;53.702;10.208;2022-07-21T03:02:26;17.30;;;13.40;;
64894;SDS011;51588;53.702;10.208;2022-07-21T03:04:53;13.40;;;12.00;;
64894;SDS011;51588;53.702;10.208;2022-07-21T03:07:19;13.63;;;11.80;;
64894;SDS011;51588;53.702;10.208;2022-07-21T03:09:45;13.13;;;11.73;;
64894;SDS011;51588;53.702;10.208;2022-07-21T03:12:12;16.20;;;11.70;;
64894;SDS011;51588;53.702;10.208;2022-07-21T03:14:38;14.20;;;11.87;;
64894;SDS011;51588;53.702;10.208;2022-07-21T03:17:04;14.83;;;11.00;;
64894;SDS011;51588;53.702;10.208;2022-07-21T03:19:32;14.93;;;12.23;;
64894;SDS011;51588;53.702;10.208;2022-07-21T03:21:58;14.87;;;11.20;;
64894;SDS011;51588;53.702;10.208;2022-07-21T03:24:25;14.97;;;12.07;;
64894;SDS011;51588;53.702;10.208;2022-07-21T03:26:51;14.30;;;11.80;;
64894;SDS011;51588;53.702;10.208;2022-07-21T03:29:18;14.53;;;11.90;;
64894;SDS011;51588;53.702;10.208;2022-07-21T03:31:44;15.33;;;12.03;;
64894;SDS011;51588;53.702;10.208;2022-07-21T03:34:10;15.50;;;12.13;;
64894;SDS011;51588;53.702;10.208;2022-07-21T03:36:38;14.97;;;11.50;;
64894;SDS011;51588;53.702;10.208;2022-07-21T03:39:05;13.40;;;11.33;;
64894;SDS011;51588;53.702;10.208;2022-07-21T03:41:31;18.07;;;12.27;;
64894;SDS011;51588;53.702;10.208;2022-07-21T03:43:58;13.90;;;10.70;;
64894;SDS011;51588;53.702;10.208;2022-07-21T03:46:24;14.17;;;11.63;;
64894;SDS011;51588;53.702;10.208;2022-07-21T03:48:50;13.13;;;11.33;;
64894;SDS011;51588;53.702;10.208;2022-07-21T03:51:17;14.53;;;11.40;;
64894;SDS011;51588;53.702;10.208;2022-07-21T03:53:44;13.93;;;11.63;;
64894;SDS011;51588;53.702;10.208;2022-07-21T03:56:11;15.37;;;11.97;;
64894;SDS011;51588;53.702;10.208;2022-07-21T03:58:37;14.53;;;12.33;;
64894;SDS011;51588;53.702;10.208;2022-07-21T04:01:03;13.00;;;11.40;;
64894;SDS011;51588;53.702;10.208;2022-07-21T04:03:30;13.87;;;11.97;;
64894;SDS011;51588;53.702;10.208;2022-07-21T04:05:59;16.33;;;11.67;;
64894;SDS011;51588;53.702;10.208;2022-07-21T04:08:25;15.30;;;11.20;;
64894;SDS011;51588;53.702;10.208;2022-07-21T04:10:53;13.47;;;12.03;;
64894;SDS011;51588;53.702;10.208;2022-07-21T04:13:19;13.57;;;11.90;;
64894;SDS011;51588;53.702;10.208;2022-07-21T04:15:46;13.33;;;11.27;;
64894;SDS011;51588;53.702;10.208;2022-07-21T04:18:12;13.73;;;11.17;;
64894;SDS011;51588;53.702;10.208;2022-07-21T04:20:38;11.60;;;10.40;;
64894;SDS011;51588;53.702;10.208;2022-07-21T04:23:05;14.70;;;10.90;;
64894;SDS011;51588;53.702;10.208;2022-07-21T04:25:31;14.87;;;11.60;;
64894;SDS011;51588;53.702;10.208;2022-07-21T04:27:59;12.40;;;10.70;;
64894;SDS011;51588;53.702;10.208;2022-07-21T04:30:25;11.50;;;10.30;;
64894;SDS011;51588;53.702;10.208;2022-07-21T04:32:52;12.83;;;10.40;;
64894;SDS011;51588;53.702;10.208;2022-07-21T04:35:18;12.60;;;10.03;;
64894;SDS011;51588;53.702;10.208;2022-07-21T04:37:45;13.10;;;11.10;;
64894;SDS011;51588;53.702;10.208;2022-07-21T04:40:12;12.77;;;10.30;;
64894;SDS011;51588;53.702;10.208;2022-07-21T04:42:38;12.57;;;10.73;;
64894;SDS011;51588;53.702;10.208;2022-07-21T04:45:07;12.50;;;10.00;;
64894;SDS011;51588;53.702;10.208;2022-07-21T04:47:41;13.77;;;10.13;;
64894;SDS011;51588;53.702;10.208;2022-07-21T04:50:08;14.00;;;10.73;;
64894;SDS011;51588;53.702;10.208;2022-07-21T04:52:34;12.80;;;10.33;;
64894;SDS011;51588;53.702;10.208;2022-07-21T04:55:00;12.43;;;10.20;;
64894;SDS011;51588;53.702;10.208;2022-07-21T04:57:27;12.97;;;10.40;;
64894;SDS011;51588;53.702;10.208;2022-07-21T04:59:53;12.00;;;9.50;;
64894;SDS011;51588;53.702;10.208;2022-07-21T05:02:21;11.73;;;9.50;;
64894;SDS011;51588;53.702;10.208;2022-07-21T05:04:47;13.90;;;9.37;;
64894;SDS011;51588;53.702;10.208;2022-07-21T05:07:13;11.13;;;9.20;;
64894;SDS011;51588;53.702;10.208;2022-07-21T05:09:40;11.23;;;9.10;;
64894;SDS011;51588;53.702;10.208;2022-07-21T05:12:06;10.33;;;8.93;;
64894;SDS011;51588;53.702;10.208;2022-07-21T05:14:33;10.73;;;9.00;;
64894;SDS011;51588;53.702;10.208;2022-07-21T05:16:59;12.03;;;9.00;;
64894;SDS011;51588;53.702;10.208;2022-07-21T05:19:27;11.50;;;9.63;;
64894;SDS011;51588;53.702;10.208;2022-07-21T05:21:53;11.03;;;7.37;;
64894;SDS011;51588;53.702;10.208;2022-07-21T05:24:19;10.97;;;9.17;;
64894;SDS011;51588;53.702;10.208;2022-07-21T05:26:46;10.37;;;8.70;;
64894;SDS011;51588;53.702;10.208;2022-07-21T05:29:12;9.70;;;8.60;;
64894;SDS011;51588;53.702;10.208;2022-07-21T05:31:38;12.30;;;9.00;;
64894;SDS011;51588;53.702;10.208;2022-07-21T05:34:05;10.57;;;8.60;;
64894;SDS011;51588;53.702;10.208;2022-07-21T05:36:32;9.83;;;8.00;;
64894;SDS011;51588;53.702;10.208;2022-07-21T05:38:59;9.10;;;7.40;;
64894;SDS011;51588;53.702;10.208;2022-07-21T05:41:25;8.43;;;7.50;;
64894;SDS011;51588;53.702;10.208;2022-07-21T05:43:51;9.73;;;7.30;;
64894;SDS011;51588;53.702;10.208;2022-07-21T05:46:18;12.43;;;7.70;;
64894;SDS011;51588;53.702;10.208;2022-07-21T05:48:44;12.33;;;7.53;;
64894;SDS011;51588;53.702;10.208;2022-07-21T05:51:11;10.57;;;7.33;;
64894;SDS011;51588;53.702;10.208;2022-07-21T05:53:38;10.70;;;7.30;;
64894;SDS011;51588;53.702;10.208;2022-07-21T05:56:05;12.67;;;8.60;;
64894;SDS011;51588;53.702;10.208;2022-07-21T05:58:32;17.90;;;7.50;;
64894;SDS011;51588;53.702;10.208;2022-07-21T06:00:59;190.27;;;32.20;;
64894;SDS011;51588;53.702;10.208;2022-07-21T06:03:34;119.40;;;22.43;;
64894;SDS011;51588;53.702;10.208;2022-07-21T06:06:01;74.80;;;17.90;;
64894;SDS011;51588;53.702;10.208;2022-07-21T06:08:27;70.67;;;17.40;;
64894;SDS011;51588;53.702;10.208;2022-07-21T06:10:55;64.10;;;15.23;;
64894;SDS011;51588;53.702;10.208;2022-07-21T06:13:21;55.23;;;13.37;;
64894;SDS011;51588;53.702;10.208;2022-07-21T06:15:47;54.00;;;12.80;;
64894;SDS011;51588;53.702;10.208;2022-07-21T06:18:14;48.70;;;11.90;;
64894;SDS011;51588;53.702;10.208;2022-07-21T06:20:40;33.03;;;10.50;;
64894;SDS011;51588;53.702;10.208;2022-07-21T06:23:07;32.57;;;10.90;;
64894;SDS011;51588;53.702;10.208;2022-07-21T06:25:33;30.20;;;10.57;;
64894;SDS011;51588;53.702;10.208;2022-07-21T06:28:01;34.07;;;9.93;;
64894;SDS011;51588;53.702;10.208;2022-07-21T06:30:27;23.67;;;9.20;;
64894;SDS011;51588;53.702;10.208;2022-07-21T06:32:54;25.00;;;9.47;;
64894;SDS011;51588;53.702;10.208;2022-07-21T06:35:20;19.60;;;8.90;;
64894;SDS011;51588;53.702;10.208;2022-07-21T06:37:47;20.77;;;9.10;;
64894;SDS011;51588;53.702;10.208;2022-07-21T06:40:13;17.70;;;8.97;;
64894;SDS011;51588;53.702;10.208;2022-07-21T06:42:40;18.03;;;8.90;;
64894;SDS011;51588;53.702;10.208;2022-07-21T06:45:08;19.03;;;8.40;;
64894;SDS011;51588;53.702;10.208;2022-07-21T06:47:35;17.37;;;8.50;;
64894;SDS011;51588;53.702;10.208;2022-07-21T06:50:01;16.07;;;8.00;;
64894;SDS011;51588;53.702;10.208;2022-07-21T06:52:28;20.13;;;8.10;;
64894;SDS011;51588;53.702;10.208;2022-07-21T06:54:54;25.27;;;8.07;;
64894;SDS011;51588;53.702;10.208;2022-07-21T06:57:21;20.73;;;7.87;;
64894;SDS011;51588;53.702;10.208;2022-07-21T06:59:47;16.33;;;7.60;;
64894;SDS011;51588;53.702;10.208;2022-07-21T07:02:15;16.23;;;6.67;;
64894;SDS011;51588;53.702;10.208;2022-07-21T07:04:41;26.07;;;7.87;;
64894;SDS011;51588;53.702;10.208;2022-07-21T07:07:08;11.70;;;6.30;;
64894;SDS011;51588;53.702;10.208;2022-07-21T07:09:34;12.50;;;5.63;;
64894;SDS011;51588;53.702;10.208;2022-07-21T07:12:01;12.77;;;6.40;;
64894;SDS011;51588;53.702;10.208;2022-07-21T07:14:29;8.73;;;5.63;;
64894;SDS011;51588;53.702;10.208;2022-07-21T07:16:55;10.33;;;5.67;;
64894;SDS011;51588;53.702;10.208;2022-07-21T07:19:23;10.50;;;5.10;;
64894;SDS011;51588;53.702;10.208;2022-07-21T07:21:50;8.27;;;5.30;;
64894;SDS011;51588;53.702;10.208;2022-07-21T07:24:16;11.87;;;5.80;;
64894;SDS011;51588;53.702;10.208;2022-07-21T07:26:42;9.53;;;5.47;;
64894;SDS011;51588;53.702;10.208;2022-07-21T07:29:09;9.50;;;5.40;;
64894;SDS011;51588;53.702;10.208;2022-07-21T07:31:35;8.20;;;5.10;;
64894;SDS011;51588;53.702;10.208;2022-07-21T07:34:02;11.20;;;6.17;;
64894;SDS011;51588;53.702;10.208;2022-07-21T07:36:30;11.93;;;6.13;;
64894;SDS011;51588;53.702;10.208;2022-07-21T07:38:57;16.10;;;5.90;;
64894;SDS011;51588;53.702;10.208;2022-07-21T07:41:24;13.00;;;5.63;;
64894;SDS011;51588;53.702;10.208;2022-07-21T07:43:50;14.20;;;5.30;;
64894;SDS011;51588;53.702;10.208;2022-07-21T07:46:17;13.20;;;5.63;;
64894;SDS011;51588;53.702;10.208;2022-07-21T07:48:43;12.53;;;5.80;;
64894;SDS011;51588;53.702;10.208;2022-07-21T07:51:10;15.30;;;5.67;;
64894;SDS011;51588;53.702;10.208;2022-07-21T07:53:38;13.27;;;5.50;;
64894;SDS011;51588;53.702;10.208;2022-07-21T07:56:05;14.00;;;5.77;;
64894;SDS011;51588;53.702;10.208;2022-07-21T07:58:31;15.23;;;5.60;;
64894;SDS011;51588;53.702;10.208;2022-07-21T08:00:58;14.47;;;6.23;;
64894;SDS011;51588;53.702;10.208;2022-07-21T08:03:24;13.30;;;5.90;;
64894;SDS011;51588;53.702;10.208;2022-07-21T08:05:52;9.17;;;5.40;;
64894;SDS011;51588;53.702;10.208;2022-07-21T08:08:18;15.30;;;6.57;;
64894;SDS011;51588;53.702;10.208;2022-07-21T08:10:46;16.63;;;6.00;;
64894;SDS011;51588;53.702;10.208;2022-07-21T08:13:12;8.03;;;5.40;;
64894;SDS011;51588;53.702;10.208;2022-07-21T08:15:39;13.53;;;6.10;;
64894;SDS011;51588;53.702;10.208;2022-07-21T08:18:05;13.20;;;6.50;;
64894;SDS011;51588;53.702;10.208;2022-07-21T08:20:32;16.83;;;7.40;;
64894;SDS011;51588;53.702;10.208;2022-07-21T08:22:59;9.87;;;6.60;;
64894;SDS011;51588;53.702;10.208;2022-07-21T08:25:25;11.80;;;6.70;;
64894;SDS011;51588;53.702;10.208;2022-07-21T08:27:53;13.87;;;6.57;;
64894;SDS011;51588;53.702;10.208;2022-07-21T08:30:19;13.07;;;7.00;;
64894;SDS011;51588;53.702;10.208;2022-07-21T08:32:46;11.00;;;6.80;;
64894;SDS011;51588;53.702;10.208;2022-07-21T08:35:12;13.10;;;6.20;;
64894;SDS011;51588;53.702;10.208;2022-07-21T08:37:39;17.00;;;7.00;;
64894;SDS011;51588;53.702;10.208;2022-07-21T08:40:07;17.50;;;6.97;;
64894;SDS011;51588;53.702;10.208;2022-07-21T08:42:33;15.57;;;7.73;;
64894;SDS011;51588;53.702;10.208;2022-07-21T08:45:01;18.57;;;7.63;;
64894;SDS011;51588;53.702;10.208;2022-07-21T08:47:28;15.03;;;7.80;;
64894;SDS011;51588;53.702;10.208;2022-07-21T08:49:55;15.50;;;7.73;;
64894;SDS011;51588;53.702;10.208;2022-07-21T08:52:21;14.53;;;8.10;;
64894;SDS011;51588;53.702;10.208;2022-07-21T08:54:47;15.13;;;7.27;;
64894;SDS011;51588;53.702;10.208;2022-07-21T08:57:14;15.40;;;7.90;;
64894;SDS011;51588;53.702;10.208;2022-07-21T08:59:40;15.10;;;8.20;;
64894;SDS011;51588;53.702;10.208;2022-07-21T09:04:49;16.00;;;7.03;;
64894;SDS011;51588;53.702;10.208;2022-07-21T09:07:16;11.73;;;7.40;;
64894;SDS011;51588;53.702;10.208;2022-07-21T09:09:53;15.90;;;8.43;;
64894;SDS011;51588;53.702;10.208;2022-07-21T09:12:19;13.77;;;8.03;;
64894;SDS011;51588;53.702;10.208;2022-07-21T09:14:46;10.90;;;7.50;;
64894;SDS011;51588;53.702;10.208;2022-07-21T09:17:12;15.30;;;8.33;;
64894;SDS011;51588;53.702;10.208;2022-07-21T09:19:38;14.10;;;7.87;;
64894;SDS011;51588;53.702;10.208;2022-07-21T09:22:13;13.27;;;7.80;;
64894;SDS011;51588;53.702;10.208;2022-07-21T09:24:42;9.10;;;6.90;;
64894;SDS011;51588;53.702;10.208;2022-07-21T09:27:14;15.03;;;7.60;;
64894;SDS011;51588;53.702;10.208;2022-07-21T09:29:41;12.33;;;8.47;;
64894;SDS011;51588;53.702;10.208;2022-07-21T09:32:12;14.67;;;8.20;;
64894;SDS011;51588;53.702;10.208;2022-07-21T09:34:39;14.70;;;9.17;;
64894;SDS011;51588;53.702;10.208;2022-07-21T09:37:06;14.07;;;9.97;;
64894;SDS011;51588;53.702;10.208;2022-07-21T09:39:47;15.83;;;8.60;;
64894;SDS011;51588;53.702;10.208;2022-07-21T09:42:15;15.33;;;10.20;;
64894;SDS011;51588;53.702;10.208;2022-07-21T09:44:42;18.40;;;8.63;;
64894;SDS011;51588;53.702;10.208;2022-07-21T09:47:10;13.23;;;9.90;;
64894;SDS011;51588;53.702;10.208;2022-07-21T09:49:37;12.70;;;9.53;;
64894;SDS011;51588;53.702;10.208;2022-07-21T09:52:04;13.90;;;8.83;;
64894;SDS011;51588;53.702;10.208;2022-07-21T09:54:43;17.93;;;13.50;;
64894;SDS011;51588;53.702;10.208;2022-07-21T09:57:10;12.27;;;10.20;;
64894;SDS011;51588;53.702;10.208;2022-07-21T09:59:37;16.50;;;13.10;;
64894;SDS011;51588;53.702;10.208;2022-07-21T10:02:04;18.17;;;13.53;;
64894;SDS011;51588;53.702;10.208;2022-07-21T10:04:31;19.47;;;12.93;;
64894;SDS011;51588;53.702;10.208;2022-07-21T10:06:58;21.67;;;14.80;;
64894;SDS011;51588;53.702;10.208;2022-07-21T10:09:24;16.73;;;13.10;;
64894;SDS011;51588;53.702;10.208;2022-07-21T10:11:51;18.40;;;14.27;;
64894;SDS011;51588;53.702;10.208;2022-07-21T10:14:19;19.83;;;12.87;;
64894;SDS011;51588;53.702;10.208;2022-07-21T10:16:45;19.03;;;13.90;;
64894;SDS011;51588;53.702;10.208;2022-07-21T10:19:13;18.70;;;14.10;;
64894;SDS011;51588;53.702;10.208;2022-07-21T10:21:41;19.90;;;14.20;;
64894;SDS011;51588;53.702;10.208;2022-07-21T10:24:09;20.60;;;14.43;;
64894;SDS011;51588;53.702;10.208;2022-07-21T10:26:36;20.70;;;14.23;;
64894;SDS011;51588;53.702;10.208;2022-07-21T10:29:02;23.60;;;15.43;;
64894;SDS011;51588;53.702;10.208;2022-07-21T10:31:30;24.23;;;15.20;;
64894;SDS011;51588;53.702;10.208;2022-07-21T10:34:00;18.23;;;14.40;;
64894;SDS011;51588;53.702;10.208;2022-07-21T10:36:38;18.10;;;14.17;;
64894;SDS011;51588;53.702;10.208;2022-07-21T10:39:22;19.63;;;13.90;;
64894;SDS011;51588;53.702;10.208;2022-07-21T10:41:49;19.03;;;14.47;;
64894;SDS011;51588;53.702;10.208;2022-07-21T10:47:03;17.93;;;13.70;;
64894;SDS011;51588;53.702;10.208;2022-07-21T10:49:41;24.67;;;14.63;;
64894;SDS011;51588;53.702;10.208;2022-07-21T10:57:30;15.87;;;12.90;;
64894;SDS011;51588;53.702;10.208;2022-07-21T11:00:15;16.70;;;12.20;;
64894;SDS011;51588;53.702;10.208;2022-07-21T11:02:45;15.90;;;12.10;;
64894;SDS011;51588;53.702;10.208;2022-07-21T11:05:11;14.37;;;12.27;;
64894;SDS011;51588;53.702;10.208;2022-07-21T11:10:24;15.90;;;12.00;;
64894;SDS011;51588;53.702;10.208;2022-07-21T11:12:54;14.93;;;11.17;;
64894;SDS011;51588;53.702;10.208;2022-07-21T11:18:03;16.13;;;12.30;;
64894;SDS011;51588;53.702;10.208;2022-07-21T11:20:30;13.77;;;12.27;;
64894;SDS011;51588;53.702;10.208;2022-07-21T11:22:56;13.70;;;12.07;;
64894;SDS011;51588;53.702;10.208;2022-07-21T11:25:28;15.53;;;11.27;;
64894;SDS011;51588;53.702;10.208;2022-07-21T11:27:54;14.90;;;12.20;;
64894;SDS011;51588;53.702;10.208;2022-07-21T11:30:21;16.83;;;12.40;;
64894;SDS011;51588;53.702;10.208;2022-07-21T11:32:47;14.13;;;11.77;;
64894;SDS011;51588;53.702;10.208;2022-07-21T11:35:15;12.83;;;11.50;;
64894;SDS011;51588;53.702;10.208;2022-07-21T11:37:42;14.43;;;11.10;;
64894;SDS011;51588;53.702;10.208;2022-07-21T11:40:09;12.00;;;10.80;;
64894;SDS011;51588;53.702;10.208;2022-07-21T11:42:37;16.03;;;12.23;;
64894;SDS011;51588;53.702;10.208;2022-07-21T11:45:04;12.57;;;10.50;;
64894;SDS011;51588;53.702;10.208;2022-07-21T11:47:30;12.07;;;10.13;;
64894;SDS011;51588;53.702;10.208;2022-07-21T11:49:57;12.60;;;10.90;;
64894;SDS011;51588;53.702;10.208;2022-07-21T11:52:26;14.33;;;10.73;;
64894;SDS011;51588;53.702;10.208;2022-07-21T11:54:53;15.90;;;10.43;;
64894;SDS011;51588;53.702;10.208;2022-07-21T11:57:21;12.60;;;10.27;;
64894;SDS011;51588;53.702;10.208;2022-07-21T11:59:48;12.67;;;9.63;;
64894;SDS011;51588;53.702;10.208;2022-07-21T12:02:15;11.43;;;9.57;;
64894;SDS011;51588;53.702;10.208;2022-07-21T12:04:43;18.80;;;10.00;;
64894;SDS011;51588;53.702;10.208;2022-07-21T12:07:11;11.80;;;9.83;;
64894;SDS011;51588;53.702;10.208;2022-07-21T12:09:39;14.07;;;10.10;;
64894;SDS011;51588;53.702;10.208;2022-07-21T12:12:06;10.30;;;9.13;;
64894;SDS011;51588;53.702;10.208;2022-07-21T12:14:40;11.87;;;10.20;;
64894;SDS011;51588;53.702;10.208;2022-07-21T12:17:06;14.30;;;10.57;;
64894;SDS011;51588;53.702;10.208;2022-07-21T12:19:32;10.40;;;9.30;;
64894;SDS011;51588;53.702;10.208;2022-07-21T12:21:59;11.17;;;9.40;;
64894;SDS011;51588;53.702;10.208;2022-07-21T12:27:11;10.53;;;9.30;;
64894;SDS011;51588;53.702;10.208;2022-07-21T12:29:37;11.77;;;9.50;;
64894;SDS011;51588;53.702;10.208;2022-07-21T12:32:03;10.77;;;8.40;;
64894;SDS011;51588;53.702;10.208;2022-07-21T12:34:30;13.33;;;8.67;;
64894;SDS011;51588;53.702;10.208;2022-07-21T12:36:56;9.17;;;8.23;;
64894;SDS011;51588;53.702;10.208;2022-07-21T12:39:23;9.00;;;7.80;;
64894;SDS011;51588;53.702;10.208;2022-07-21T12:42:09;11.30;;;8.67;;
64894;SDS011;51588;53.702;10.208;2022-07-21T12:44:37;9.90;;;8.20;;
64894;SDS011;51588;53.702;10.208;2022-07-21T12:47:14;8.10;;;7.30;;
64894;SDS011;51588;53.702;10.208;2022-07-21T12:49:53;9.20;;;7.70;;
64894;SDS011;51588;53.702;10.208;2022-07-21T12:52:20;10.57;;;7.00;;
64894;SDS011;51588;53.702;10.208;2022-07-21T12:54:46;9.50;;;7.50;;
64894;SDS011;51588;53.702;10.208;2022-07-21T12:57:13;8.13;;;6.50;;
64894;SDS011;51588;53.702;10.208;2022-07-21T12:59:40;8.17;;;7.33;;
64894;SDS011;51588;53.702;10.208;2022-07-21T13:02:07;11.93;;;7.97;;
64894;SDS011;51588;53.702;10.208;2022-07-21T13:04:33;12.10;;;8.00;;
64894;SDS011;51588;53.702;10.208;2022-07-21T13:06:59;9.60;;;7.90;;
64894;SDS011;51588;53.702;10.208;2022-07-21T13:09:26;11.20;;;8.00;;
64894;SDS011;51588;53.702;10.208;2022-07-21T13:11:52;10.03;;;7.23;;
64894;SDS011;51588;53.702;10.208;2022-07-21T13:14:19;11.03;;;7.43;;
64894;SDS011;51588;53.702;10.208;2022-07-21T13:16:46;12.97;;;8.33;;
64894;SDS011;51588;53.702;10.208;2022-07-21T13:19:13;11.90;;;7.97;;
64894;SDS011;51588;53.702;10.208;2022-07-21T13:21:39;10.20;;;7.23;;
64894;SDS011;51588;53.702;10.208;2022-07-21T13:24:06;8.93;;;7.10;;
64894;SDS011;51588;53.702;10.208;2022-07-21T13:26:32;11.37;;;7.73;;
64894;SDS011;51588;53.702;10.208;2022-07-21T13:28:59;9.00;;;7.00;;
64894;SDS011;51588;53.702;10.208;2022-07-21T13:31:26;12.47;;;7.80;;
64894;SDS011;51588;53.702;10.208;2022-07-21T13:33:54;8.50;;;6.80;;
64894;SDS011;51588;53.702;10.208;2022-07-21T13:36:20;10.50;;;7.17;;
64894;SDS011;51588;53.702;10.208;2022-07-21T13:38:46;11.20;;;6.50;;
64894;SDS011;51588;53.702;10.208;2022-07-21T13:41:13;8.53;;;6.90;;
64894;SDS011;51588;53.702;10.208;2022-07-21T13:43:41;8.30;;;7.23;;
64894;SDS011;51588;53.702;10.208;2022-07-21T13:46:08;8.43;;;7.07;;
64894;SDS011;51588;53.702;10.208;2022-07-21T13:48:34;8.23;;;6.40;;
64894;SDS011;51588;53.702;10.208;2022-07-21T13:51:03;6.60;;;6.00;;
64894;SDS011;51588;53.702;10.208;2022-07-21T13:53:30;8.23;;;6.93;;
64894;SDS011;51588;53.702;10.208;2022-07-21T13:55:56;8.20;;;7.40;;
64894;SDS011;51588;53.702;10.208;2022-07-21T13:58:25;13.60;;;7.00;;
64894;SDS011;51588;53.702;10.208;2022-07-21T14:00:52;7.50;;;6.70;;
64894;SDS011;51588;53.702;10.208;2022-07-21T14:03:18;7.23;;;6.40;;
64894;SDS011;51588;53.702;10.208;2022-07-21T14:05:44;6.90;;;6.20;;
64894;SDS011;51588;53.702;10.208;2022-07-21T14:08:12;6.50;;;5.80;;
64894;SDS011;51588;53.702;10.208;2022-07-21T14:10:38;6.30;;;5.70;;
64894;SDS011;51588;53.702;10.208;2022-07-21T14:13:06;5.97;;;5.37;;
64894;SDS011;51588;53.702;10.208;2022-07-21T14:15:32;7.33;;;5.60;;
64894;SDS011;51588;53.702;10.208;2022-07-21T14:17:59;7.10;;;5.93;;
64894;SDS011;51588;53.702;10.208;2022-07-21T14:20:25;7.67;;;6.93;;
64894;SDS011;51588;53.702;10.208;2022-07-21T14:22:52;6.70;;;6.10;;
64894;SDS011;51588;53.702;10.208;2022-07-21T14:25:20;6.80;;;6.20;;
64894;SDS011;51588;53.702;10.208;2022-07-21T14:27:47;7.30;;;5.83;;
64894;SDS011;51588;53.702;10.208;2022-07-21T14:30:14;6.33;;;5.83;;
64894;SDS011;51588;53.702;10.208;2022-07-21T14:32:40;6.60;;;5.87;;
64894;SDS011;51588;53.702;10.208;2022-07-21T14:35:07;6.47;;;5.60;;